createdAt,value
2022-10-16T00:01:09.263Z,994.16
2022-10-16T00:06:09.370Z,994.20
2022-10-16T00:12:27.934Z,994.33
2022-10-16T00:17:26.609Z,994.39
2022-10-16T00:22:27.030Z,994.31
2022-10-16T00:27:26.519Z,994.24
2022-10-16T00:32:26.747Z,994.23
2022-10-16T00:37:26.408Z,994.21
2022-10-16T00:42:26.734Z,994.12
2022-10-16T00:47:26.198Z,994.20
2022-10-16T00:52:26.518Z,994.30
2022-10-16T00:57:26.199Z,994.35
2022-10-16T01:02:29.270Z,994.42
2022-10-16T01:07:26.300Z,994.50
2022-10-16T01:12:25.936Z,994.47
2022-10-16T01:17:26.064Z,994.45
2022-10-16T01:22:25.969Z,994.52
2022-10-16T01:27:26.096Z,994.55
2022-10-16T01:32:25.759Z,994.46
2022-10-16T01:37:25.769Z,994.47
2022-10-16T01:42:25.618Z,994.39
2022-10-16T01:47:25.627Z,994.43
2022-10-16T01:52:25.650Z,994.50
2022-10-16T01:57:25.410Z,994.45
2022-10-16T02:02:28.644Z,994.48
2022-10-16T02:07:25.249Z,994.64
2022-10-16T02:12:25.420Z,994.73
2022-10-16T02:17:25.191Z,994.83
2022-10-16T02:23:54.924Z,994.81
2022-10-16T02:29:02.214Z,994.87
2022-10-16T02:35:11.593Z,994.84
2022-10-16T02:40:11.321Z,994.79
2022-10-16T02:45:11.164Z,994.86
2022-10-16T02:50:11.078Z,994.82
2022-10-16T02:55:11.183Z,994.80
2022-10-16T03:00:10.931Z,994.86
2022-10-16T03:05:11.145Z,994.99
2022-10-16T03:10:10.859Z,994.89
2022-10-16T03:15:11.520Z,994.94
2022-10-16T03:21:28.424Z,994.99
2022-10-16T03:26:28.332Z,994.94
2022-10-16T03:31:28.249Z,994.81
2022-10-16T03:36:28.144Z,994.79
2022-10-16T03:41:28.013Z,994.79
2022-10-16T03:46:28.123Z,994.68
2022-10-16T03:51:28.020Z,994.62
2022-10-16T03:56:27.824Z,994.82
2022-10-16T04:01:27.894Z,994.77
2022-10-16T04:06:27.718Z,994.93
2022-10-16T04:11:30.704Z,995.07
2022-10-16T04:16:27.844Z,995.05
2022-10-16T04:21:27.729Z,995.13
2022-10-16T04:26:27.374Z,995.27
2022-10-16T04:31:27.319Z,995.28
2022-10-16T04:36:29.205Z,995.38
2022-10-16T04:41:37.978Z,995.49
2022-10-16T04:46:27.159Z,995.58
2022-10-16T04:51:27.114Z,995.61
2022-10-16T04:56:26.974Z,995.56
2022-10-16T05:01:27.054Z,995.73
2022-10-16T05:06:26.959Z,995.80
2022-10-16T05:11:29.891Z,995.87
2022-10-16T05:16:26.799Z,995.80
2022-10-16T05:21:26.809Z,995.88
2022-10-16T05:26:26.568Z,995.86
2022-10-16T05:31:26.626Z,995.88
2022-10-16T05:36:26.508Z,995.90
2022-10-16T05:41:26.476Z,996.00
2022-10-16T05:46:26.355Z,996.17
2022-10-16T05:51:26.369Z,996.14
2022-10-16T05:56:26.299Z,996.25
2022-10-16T06:01:26.199Z,996.30
2022-10-16T06:06:26.151Z,996.38
2022-10-16T06:11:29.261Z,996.39
2022-10-16T06:16:26.144Z,996.47
2022-10-16T06:21:26.243Z,996.62
2022-10-16T06:40:19.003Z,996.30
2022-10-16T06:53:06.888Z,996.26
2022-10-16T06:58:15.284Z,996.16
2022-10-16T07:03:06.785Z,996.14
2022-10-16T07:18:11.878Z,996.39
2022-10-16T07:28:51.004Z,996.62
2022-10-16T07:36:51.601Z,996.68
2022-10-16T07:41:51.589Z,996.78
2022-10-16T07:48:09.323Z,996.73
2022-10-16T07:54:29.902Z,996.77
2022-10-16T07:59:29.697Z,996.67
2022-10-16T08:04:29.530Z,996.70
2022-10-16T08:10:55.539Z,996.61
2022-10-16T08:24:16.504Z,996.87
2022-10-16T09:11:30.274Z,997.66
2022-10-16T09:16:30.028Z,997.51
2022-10-16T09:21:30.074Z,997.65
2022-10-16T09:26:30.067Z,997.65
2022-10-16T09:34:06.953Z,997.67
2022-10-16T09:55:42.259Z,997.71
2022-10-16T10:07:50.251Z,997.71
2022-10-16T10:18:44.139Z,997.82
2022-10-16T10:26:29.143Z,997.93
2022-10-16T10:36:03.915Z,997.91
2022-10-16T10:42:47.670Z,997.89
2022-10-16T10:56:22.415Z,997.86
2022-10-16T11:04:17.858Z,997.90
2022-10-16T11:10:34.744Z,997.91
2022-10-16T11:15:35.459Z,997.98
2022-10-16T11:22:02.833Z,998.05
2022-10-16T11:27:02.474Z,998.01
2022-10-16T12:15:15.872Z,998.25
2022-10-16T12:19:55.411Z,998.28
2022-10-16T12:24:54.188Z,998.36
2022-10-16T12:29:54.639Z,998.31
2022-10-16T12:34:54.019Z,998.34
2022-10-16T12:39:54.215Z,998.20
2022-10-16T12:44:53.859Z,998.20
2022-10-16T12:49:55.071Z,998.18
2022-10-16T12:54:53.831Z,998.12
2022-10-16T13:00:01.579Z,998.17
2022-10-16T13:04:56.952Z,998.20
2022-10-16T13:09:53.588Z,998.13
2022-10-16T13:14:53.468Z,998.22
2022-10-16T13:19:53.482Z,998.33
2022-10-16T13:24:53.365Z,998.45
2022-10-16T13:29:53.319Z,998.45
2022-10-16T13:34:53.200Z,998.48
2022-10-16T13:40:01.862Z,998.53
2022-10-16T13:44:53.157Z,998.53
2022-10-16T13:49:53.149Z,998.54
2022-10-16T13:54:53.843Z,998.56
2022-10-16T13:59:52.953Z,998.58
2022-10-16T14:04:55.840Z,998.59
2022-10-16T14:09:52.750Z,998.61
2022-10-16T14:14:52.716Z,998.69
2022-10-16T14:19:56.932Z,998.80
2022-10-16T14:24:53.669Z,998.84
2022-10-16T14:29:52.540Z,998.75
2022-10-16T14:34:52.548Z,998.81
2022-10-16T14:39:52.406Z,998.91
2022-10-16T14:44:52.367Z,998.99
2022-10-16T14:49:52.195Z,999.07
2022-10-16T14:54:52.169Z,999.09
2022-10-16T14:59:52.184Z,999.12
2022-10-16T15:04:55.086Z,999.19
2022-10-16T15:09:59.867Z,999.30
2022-10-16T15:14:59.324Z,999.36
2022-10-16T15:19:59.566Z,999.41
2022-10-16T15:24:59.208Z,999.38
2022-10-16T15:29:59.449Z,999.47
2022-10-16T15:34:51.596Z,999.53
2022-10-16T15:39:51.571Z,999.63
2022-10-16T15:44:51.784Z,999.74
2022-10-16T15:49:51.503Z,999.71
2022-10-16T15:54:54.110Z,999.75
2022-10-16T15:59:51.499Z,999.83
2022-10-16T16:04:54.227Z,999.86
2022-10-16T16:09:51.152Z,999.75
2022-10-16T16:16:19.704Z,999.82
2022-10-16T16:21:19.491Z,999.89
2022-10-16T16:26:19.662Z,1000.12
2022-10-16T16:31:19.359Z,1000.10
2022-10-16T16:36:19.405Z,1000.24
2022-10-16T16:41:19.243Z,1000.32
2022-10-16T16:46:19.373Z,1000.33
2022-10-16T16:51:19.142Z,1000.40
2022-10-16T16:56:20.408Z,1000.47
2022-10-16T17:01:20.797Z,1000.62
2022-10-16T17:06:22.030Z,1000.76
2022-10-16T17:11:19.093Z,1000.78
2022-10-16T17:16:18.884Z,1000.82
2022-10-16T17:21:18.720Z,1000.90
2022-10-16T17:26:18.820Z,1000.78
2022-10-16T17:31:18.660Z,1000.87
2022-10-16T17:36:18.573Z,1000.96
2022-10-16T17:41:18.461Z,1000.98
2022-10-16T17:46:18.743Z,1001.04
2022-10-16T17:51:18.343Z,1001.11
2022-10-16T17:56:18.444Z,1001.18
2022-10-16T18:01:18.277Z,1001.18
2022-10-16T18:06:23.142Z,1001.13
2022-10-16T18:11:18.139Z,1001.22
2022-10-16T18:16:18.193Z,1001.25
2022-10-16T18:21:17.967Z,1001.44
2022-10-16T18:26:17.948Z,1001.42
2022-10-16T18:31:18.120Z,1001.46
2022-10-16T18:36:17.779Z,1001.53
2022-10-16T18:41:17.665Z,1001.55
2022-10-16T18:46:17.676Z,1001.51
2022-10-16T18:51:17.517Z,1001.62
2022-10-16T18:56:17.490Z,1001.66
2022-10-16T19:01:17.468Z,1001.66
2022-10-16T19:06:20.477Z,1001.61
2022-10-16T19:11:17.273Z,1001.62
2022-10-16T19:16:21.388Z,1001.59
2022-10-16T19:21:17.162Z,1001.69
2022-10-16T19:26:17.122Z,1001.80
2022-10-16T19:31:17.063Z,1001.86
2022-10-16T19:36:16.981Z,1001.91
2022-10-16T19:41:16.956Z,1002.06
2022-10-16T19:46:16.938Z,1002.16
2022-10-16T19:51:24.323Z,1002.11
2022-10-16T19:56:16.689Z,1002.24
2022-10-16T20:01:16.754Z,1002.26
2022-10-16T20:06:26.598Z,1002.15
2022-10-16T20:11:16.557Z,1002.09
2022-10-16T20:16:16.546Z,1002.15
2022-10-16T20:21:16.379Z,1002.16
2022-10-16T20:26:16.344Z,1002.26
2022-10-16T20:31:16.227Z,1002.41
2022-10-16T20:36:16.333Z,1002.52
2022-10-16T20:41:16.154Z,1002.54
2022-10-16T20:46:16.236Z,1002.54
2022-10-16T20:51:16.008Z,1002.56
2022-10-16T20:56:15.988Z,1002.57
2022-10-16T21:01:15.946Z,1002.55
2022-10-16T21:06:18.838Z,1002.60
2022-10-16T21:11:15.719Z,1002.61
2022-10-16T21:16:15.708Z,1002.65
2022-10-16T21:21:15.568Z,1002.55
2022-10-16T21:26:15.761Z,1002.68
2022-10-16T21:31:15.444Z,1002.60
2022-10-16T21:36:15.412Z,1002.57
2022-10-16T21:41:15.301Z,1002.66
2022-10-16T21:46:15.299Z,1002.64
2022-10-16T21:51:15.183Z,1002.73
2022-10-16T21:56:15.140Z,1002.71
2022-10-16T22:01:15.180Z,1002.76
2022-10-16T22:06:18.066Z,1002.81
2022-10-16T22:11:15.031Z,1002.73
2022-10-16T22:16:14.901Z,1002.60
2022-10-16T22:21:14.773Z,1002.69
2022-10-16T22:26:14.824Z,1002.68
2022-10-16T22:31:14.767Z,1002.63
2022-10-16T22:36:14.709Z,1002.67
2022-10-16T22:41:14.511Z,1002.70
2022-10-16T22:46:14.489Z,1002.70
2022-10-16T22:51:16.824Z,1002.73
2022-10-16T22:56:14.338Z,1002.73
2022-10-16T23:01:14.247Z,1002.57
2022-10-16T23:06:17.208Z,1002.57
2022-10-16T23:11:14.189Z,1002.61
2022-10-16T23:16:14.318Z,1002.62
2022-10-16T23:21:13.969Z,1002.49
2022-10-16T23:26:13.996Z,1002.55
2022-10-16T23:31:13.843Z,1002.54
2022-10-16T23:36:13.793Z,1002.56
2022-10-16T23:41:21.608Z,1002.61
2022-10-16T23:46:21.189Z,1002.60
2022-10-16T23:51:13.648Z,1002.57
2022-10-16T23:56:13.643Z,1002.63
